createdAt,value
2022-08-23T00:00:58.828Z,20.88
2022-08-23T00:01:58.820Z,20.91
2022-08-23T00:02:58.860Z,20.81
2022-08-23T00:03:58.814Z,20.93
2022-08-23T00:05:09.368Z,20.85
2022-08-23T00:05:58.799Z,20.85
2022-08-23T00:06:58.793Z,20.90
2022-08-23T00:07:58.942Z,20.85
2022-08-23T00:08:58.784Z,20.82
2022-08-23T00:09:58.776Z,20.85
2022-08-23T00:10:58.772Z,20.85
2022-08-23T00:11:58.765Z,20.90
2022-08-23T00:12:58.762Z,20.91
2022-08-23T00:13:58.754Z,20.90
2022-08-23T00:14:58.750Z,20.88
2022-08-23T00:15:58.745Z,20.87
2022-08-23T00:16:58.789Z,20.85
2022-08-23T00:17:58.850Z,20.82
2022-08-23T00:18:59.189Z,20.85
2022-08-23T00:19:58.721Z,20.91
2022-08-23T00:20:58.718Z,20.88
2022-08-23T00:21:58.710Z,20.82
2022-08-23T00:22:58.706Z,20.83
2022-08-23T00:23:58.700Z,20.83
2022-08-23T00:24:58.697Z,20.73
2022-08-23T00:25:58.689Z,20.75
2022-08-23T00:26:58.683Z,20.73
2022-08-23T00:27:58.807Z,20.78
2022-08-23T00:28:58.672Z,20.72
2022-08-23T00:29:58.666Z,20.72
2022-08-23T00:30:58.663Z,20.66
2022-08-23T00:31:58.654Z,20.64
2022-08-23T00:32:58.650Z,20.61
2022-08-23T00:33:58.643Z,20.73
2022-08-23T00:34:58.639Z,20.64
2022-08-23T00:35:58.632Z,20.63
2022-08-23T00:36:58.629Z,20.61
2022-08-23T00:38:32.053Z,20.66
2022-08-23T00:38:58.619Z,20.68
2022-08-23T00:39:58.644Z,20.66
2022-08-23T00:40:58.606Z,20.61
2022-08-23T00:41:58.598Z,20.61
2022-08-23T00:42:58.594Z,20.61
2022-08-23T00:43:58.586Z,20.58
2022-08-23T00:44:58.583Z,20.61
2022-08-23T00:45:58.576Z,20.58
2022-08-23T00:46:58.571Z,20.66
2022-08-23T00:47:58.771Z,20.63
2022-08-23T00:48:58.560Z,20.54
2022-08-23T00:49:58.553Z,20.64
2022-08-23T00:50:58.547Z,20.64
2022-08-23T00:51:58.539Z,20.66
2022-08-23T00:52:58.538Z,20.61
2022-08-23T00:53:58.529Z,20.76
2022-08-23T00:54:58.525Z,20.61
2022-08-23T00:55:58.518Z,20.64
2022-08-23T00:56:58.514Z,20.66
2022-08-23T00:57:58.585Z,20.68
2022-08-23T00:58:58.502Z,20.66
2022-08-23T00:59:58.497Z,20.66
2022-08-23T01:00:58.490Z,20.63
2022-08-23T01:01:58.541Z,20.61
2022-08-23T01:02:58.518Z,20.61
2022-08-23T01:03:59.204Z,20.68
2022-08-23T01:04:58.467Z,20.60
2022-08-23T01:05:58.462Z,20.61
2022-08-23T01:06:58.455Z,20.61
2022-08-23T01:07:58.633Z,20.50
2022-08-23T01:08:58.445Z,20.51
2022-08-23T01:09:58.439Z,20.46
2022-08-23T01:10:58.431Z,20.46
2022-08-23T01:11:58.429Z,20.33
2022-08-23T01:12:58.419Z,20.25
2022-08-23T01:13:58.417Z,20.27
2022-08-23T01:14:58.407Z,20.27
2022-08-23T01:15:58.404Z,20.25
2022-08-23T01:16:58.397Z,20.27
2022-08-23T01:17:58.467Z,20.30
2022-08-23T01:18:58.384Z,20.20
2022-08-23T01:19:58.382Z,20.17
2022-08-23T01:20:58.372Z,20.13
2022-08-23T01:21:58.383Z,20.15
2022-08-23T01:22:58.358Z,20.16
2022-08-23T01:23:58.360Z,20.12
2022-08-23T01:25:05.972Z,20.12
2022-08-23T01:25:58.344Z,20.07
2022-08-23T01:26:58.335Z,20.08
2022-08-23T01:27:58.488Z,20.19
2022-08-23T01:28:58.324Z,20.17
2022-08-23T01:29:58.320Z,20.19
2022-08-23T01:30:58.313Z,20.25
2022-08-23T01:31:58.308Z,20.19
2022-08-23T01:32:58.299Z,20.15
2022-08-23T01:33:58.295Z,20.22
2022-08-23T01:34:58.287Z,20.16
2022-08-23T01:35:58.285Z,20.13
2022-08-23T01:36:58.275Z,20.15
2022-08-23T01:37:58.306Z,20.15
2022-08-23T01:38:58.313Z,20.16
2022-08-23T01:39:58.370Z,20.19
2022-08-23T01:40:58.253Z,20.13
2022-08-23T01:41:58.247Z,20.10
2022-08-23T01:42:58.237Z,20.08
2022-08-23T01:43:58.235Z,20.05
2022-08-23T01:44:58.227Z,20.08
2022-08-23T01:45:58.221Z,20.12
2022-08-23T01:46:58.214Z,20.22
2022-08-23T01:47:58.210Z,20.17
2022-08-23T01:48:58.202Z,20.20
2022-08-23T01:49:58.198Z,20.16
2022-08-23T01:50:58.189Z,20.16
2022-08-23T01:51:58.185Z,20.17
2022-08-23T01:52:58.350Z,20.12
2022-08-23T01:53:58.395Z,20.08
2022-08-23T01:54:58.164Z,20.04
2022-08-23T01:55:58.163Z,20.01
2022-08-23T01:56:58.153Z,19.95
2022-08-23T01:57:58.162Z,19.90
2022-08-23T01:58:58.139Z,19.90
2022-08-23T01:59:58.136Z,19.87
2022-08-23T02:00:58.127Z,19.89
2022-08-23T02:01:58.191Z,19.92
2022-08-23T02:02:58.165Z,19.85
2022-08-23T02:04:04.860Z,19.76
2022-08-23T02:04:58.103Z,19.78
2022-08-23T02:05:58.099Z,19.78
2022-08-23T02:06:58.091Z,19.62
2022-08-23T02:07:58.084Z,19.62
2022-08-23T02:08:58.079Z,19.70
2022-08-23T02:09:58.074Z,19.64
2022-08-23T02:10:58.064Z,19.60
2022-08-23T02:11:58.061Z,19.60
2022-08-23T02:12:58.052Z,19.57
2022-08-23T02:13:58.049Z,19.39
2022-08-23T02:14:58.039Z,19.55
2022-08-23T02:15:58.086Z,19.46
2022-08-23T02:17:04.020Z,19.40
2022-08-23T02:17:58.034Z,19.43
2022-08-23T02:18:58.014Z,19.52
2022-08-23T02:19:58.008Z,19.42
2022-08-23T02:20:58.122Z,19.39
2022-08-23T02:21:57.999Z,19.35
2022-08-23T02:22:58.082Z,19.47
2022-08-23T02:23:57.984Z,19.52
2022-08-23T02:24:57.976Z,19.45
2022-08-23T02:25:57.974Z,19.39
2022-08-23T02:26:57.965Z,19.40
2022-08-23T02:27:57.956Z,19.34
2022-08-23T02:28:57.949Z,19.32
2022-08-23T02:29:57.946Z,19.30
2022-08-23T02:30:58.061Z,19.42
2022-08-23T02:31:57.982Z,19.46
2022-08-23T02:32:57.923Z,19.47
2022-08-23T02:33:57.919Z,19.52
2022-08-23T02:35:05.372Z,19.62
2022-08-23T02:35:57.905Z,19.58
2022-08-23T02:36:57.899Z,19.64
2022-08-23T02:37:57.923Z,19.52
2022-08-23T02:38:57.884Z,19.53
2022-08-23T02:39:57.935Z,19.43
2022-08-23T02:41:01.057Z,19.35
2022-08-23T02:41:57.867Z,19.43
2022-08-23T02:42:57.857Z,19.43
2022-08-23T02:43:57.853Z,19.39
2022-08-23T02:44:57.844Z,19.43
2022-08-23T02:45:57.840Z,19.50
2022-08-23T02:46:57.830Z,19.55
2022-08-23T02:47:57.922Z,19.65
2022-08-23T02:48:57.821Z,19.58
2022-08-23T02:49:57.912Z,19.50
2022-08-23T02:50:57.803Z,19.55
2022-08-23T02:51:57.798Z,19.52
2022-08-23T02:52:57.790Z,19.53
2022-08-23T02:53:57.786Z,19.52
2022-08-23T02:54:58.393Z,19.49
2022-08-23T02:55:57.773Z,19.50
2022-08-23T02:56:57.766Z,19.35
2022-08-23T02:57:57.817Z,19.28
2022-08-23T02:58:57.751Z,19.25
2022-08-23T02:59:57.747Z,19.30
2022-08-23T03:00:57.736Z,19.16
2022-08-23T03:01:57.763Z,19.17
2022-08-23T03:02:57.725Z,19.09
2022-08-23T03:03:57.720Z,18.97
2022-08-23T03:04:57.712Z,19.02
2022-08-23T03:05:58.396Z,19.02
2022-08-23T03:06:57.695Z,18.96
2022-08-23T03:07:57.712Z,19.05
2022-08-23T03:08:57.691Z,19.01
2022-08-23T03:09:57.678Z,19.07
2022-08-23T03:10:57.670Z,18.99
2022-08-23T03:11:57.663Z,18.97
2022-08-23T03:12:57.657Z,18.97
2022-08-23T03:13:57.658Z,18.94
2022-08-23T03:14:57.640Z,19.02
2022-08-23T03:15:57.639Z,19.02
2022-08-23T03:16:58.401Z,18.96
2022-08-23T03:17:57.709Z,18.97
2022-08-23T03:18:57.632Z,19.13
2022-08-23T03:19:57.610Z,18.97
2022-08-23T03:20:57.600Z,19.07
2022-08-23T03:21:57.597Z,19.06
2022-08-23T03:22:57.588Z,19.09
2022-08-23T03:23:57.585Z,19.16
2022-08-23T03:24:57.573Z,19.13
2022-08-23T03:25:57.569Z,19.12
2022-08-23T03:26:57.558Z,19.20
2022-08-23T03:27:57.624Z,19.10
2022-08-23T03:28:57.544Z,19.06
2022-08-23T03:29:57.542Z,19.06
2022-08-23T03:30:57.534Z,19.09
2022-08-23T03:31:57.528Z,19.07
2022-08-23T03:32:57.520Z,18.97
2022-08-23T03:33:57.515Z,19.05
2022-08-23T03:34:57.504Z,19.06
2022-08-23T03:35:57.499Z,19.06
2022-08-23T03:36:57.494Z,19.07
2022-08-23T03:37:57.538Z,19.07
2022-08-23T03:38:57.477Z,18.99
2022-08-23T03:39:57.537Z,19.06
2022-08-23T03:40:57.462Z,19.10
2022-08-23T03:41:57.458Z,19.07
2022-08-23T03:42:57.497Z,19.05
2022-08-23T03:43:57.443Z,19.07
2022-08-23T03:45:02.567Z,19.06
2022-08-23T03:45:57.431Z,19.07
2022-08-23T03:46:57.420Z,19.06
2022-08-23T03:47:57.419Z,19.09
2022-08-23T03:48:57.405Z,19.05
2022-08-23T03:49:57.401Z,19.01
2022-08-23T03:50:57.390Z,19.05
2022-08-23T03:51:57.400Z,19.05
2022-08-23T03:52:57.477Z,18.96
2022-08-23T03:53:57.374Z,18.94
2022-08-23T03:54:57.363Z,18.91
2022-08-23T03:55:57.359Z,18.91
2022-08-23T03:56:57.349Z,19.05
2022-08-23T03:57:57.344Z,18.99
2022-08-23T03:58:57.334Z,19.02
2022-08-23T03:59:57.329Z,19.07
2022-08-23T04:00:57.321Z,19.01
2022-08-23T04:01:57.359Z,18.97
2022-08-23T04:02:57.304Z,19.06
2022-08-23T04:03:57.300Z,18.94
2022-08-23T04:04:57.291Z,18.87
2022-08-23T04:05:57.288Z,18.93
2022-08-23T04:06:57.275Z,18.89
2022-08-23T04:07:57.354Z,18.83
2022-08-23T04:08:57.274Z,18.75
2022-08-23T04:09:57.258Z,18.51
2022-08-23T04:10:57.248Z,18.54
2022-08-23T04:11:57.243Z,18.49
2022-08-23T04:12:57.334Z,18.47
2022-08-23T04:13:57.228Z,18.49
2022-08-23T04:14:57.218Z,18.50
2022-08-23T04:15:57.214Z,18.53
2022-08-23T04:16:57.206Z,18.60
2022-08-23T04:17:57.273Z,18.59
2022-08-23T04:18:57.189Z,18.62
2022-08-23T04:19:57.185Z,18.59
2022-08-23T04:20:57.175Z,18.51
2022-08-23T04:21:57.170Z,18.59
2022-08-23T04:22:57.367Z,18.74
2022-08-23T04:23:57.155Z,18.87
2022-08-23T04:24:57.145Z,18.79
2022-08-23T04:25:57.143Z,18.82
2022-08-23T04:26:57.129Z,18.74
2022-08-23T04:27:57.194Z,18.71
2022-08-23T04:28:57.118Z,18.62
2022-08-23T04:29:57.111Z,18.54
2022-08-23T04:30:57.104Z,18.47
2022-08-23T04:31:57.096Z,18.51
2022-08-23T04:32:57.088Z,18.56
2022-08-23T04:33:57.084Z,18.41
2022-08-23T04:34:57.072Z,18.38
2022-08-23T04:35:57.066Z,18.36
2022-08-23T04:36:57.058Z,18.41
2022-08-23T04:37:57.058Z,18.41
2022-08-23T04:38:57.045Z,18.47
2022-08-23T04:39:57.069Z,18.47
2022-08-23T04:40:57.027Z,18.44
2022-08-23T04:41:57.024Z,18.53
2022-08-23T04:42:57.015Z,18.51
2022-08-23T04:43:57.007Z,18.47
2022-08-23T04:44:56.997Z,18.57
2022-08-23T04:45:56.995Z,18.49
2022-08-23T04:47:57.039Z,18.44
2022-08-23T04:48:56.970Z,18.50
2022-08-23T04:49:56.961Z,18.46
2022-08-23T04:50:56.956Z,18.41
2022-08-23T04:51:56.946Z,18.41
2022-08-23T04:52:56.991Z,18.46
2022-08-23T04:53:56.930Z,18.41
2022-08-23T04:54:56.925Z,18.47
2022-08-23T04:55:56.931Z,18.44
2022-08-23T04:56:56.910Z,18.38
2022-08-23T04:57:56.903Z,18.36
2022-08-23T04:58:56.895Z,18.26
2022-08-23T04:59:56.887Z,18.28
2022-08-23T05:00:56.947Z,18.36
2022-08-23T05:01:56.872Z,18.29
2022-08-23T05:02:56.871Z,18.36
2022-08-23T05:03:56.860Z,18.38
2022-08-23T05:04:56.850Z,18.41
2022-08-23T05:05:56.841Z,18.41
2022-08-23T05:06:56.835Z,18.47
2022-08-23T05:07:56.841Z,18.51
2022-08-23T05:08:56.821Z,19.02
2022-08-23T05:09:56.812Z,19.09
2022-08-23T05:10:56.806Z,19.28
2022-08-23T05:11:56.795Z,19.39
2022-08-23T05:12:56.791Z,19.52
2022-08-23T05:13:56.786Z,19.61
2022-08-23T05:14:56.777Z,19.71
2022-08-23T05:15:56.766Z,19.79
2022-08-23T05:16:56.772Z,19.79
2022-08-23T05:17:56.755Z,19.83
2022-08-23T05:18:56.745Z,19.89
2022-08-23T05:19:56.843Z,20.02
2022-08-23T05:20:56.732Z,20.15
2022-08-23T05:21:57.299Z,20.17
2022-08-23T05:22:56.718Z,20.35
2022-08-23T05:23:56.714Z,20.48
2022-08-23T05:24:56.705Z,20.50
2022-08-23T05:25:56.702Z,20.61
2022-08-23T05:26:56.690Z,20.68
2022-08-23T05:27:56.684Z,20.58
2022-08-23T05:28:56.679Z,20.68
2022-08-23T05:29:56.672Z,20.58
2022-08-23T05:30:57.227Z,20.61
2022-08-23T05:31:56.659Z,20.75
2022-08-23T05:32:56.650Z,20.75
2022-08-23T05:33:56.646Z,20.83
2022-08-23T05:34:56.638Z,20.88
2022-08-23T05:35:56.632Z,20.91
2022-08-23T05:36:56.656Z,20.93
2022-08-23T05:37:56.619Z,20.91
2022-08-23T05:38:56.612Z,20.94
2022-08-23T05:39:56.643Z,20.91
2022-08-23T05:40:56.650Z,20.94
2022-08-23T05:41:56.595Z,20.91
2022-08-23T05:42:56.585Z,20.82
2022-08-23T05:43:56.580Z,20.83
2022-08-23T05:44:56.572Z,20.87
2022-08-23T05:45:56.570Z,20.91
2022-08-23T05:46:56.558Z,20.93
2022-08-23T05:47:56.561Z,20.85
2022-08-23T05:48:56.547Z,20.96
2022-08-23T05:49:56.543Z,20.96
2022-08-23T05:50:56.534Z,20.91
2022-08-23T05:51:56.531Z,20.91
2022-08-23T05:52:56.523Z,21.00
2022-08-23T05:53:56.519Z,21.00
2022-08-23T05:54:56.509Z,21.05
2022-08-23T05:55:56.505Z,21.15
2022-08-23T05:56:56.502Z,21.21
2022-08-23T05:57:56.494Z,21.21
2022-08-23T05:58:59.660Z,21.31
2022-08-23T05:59:56.482Z,21.34
2022-08-23T06:00:56.487Z,21.42
2022-08-23T06:01:56.474Z,21.43
2022-08-23T06:02:56.461Z,21.36
2022-08-23T06:03:56.458Z,21.34
2022-08-23T06:04:57.573Z,21.31
2022-08-23T06:05:56.447Z,21.42
2022-08-23T06:06:56.446Z,21.46
2022-08-23T06:07:56.437Z,21.37
2022-08-23T06:08:56.435Z,21.45
2022-08-23T06:09:56.425Z,21.45
2022-08-23T06:10:56.416Z,21.48
2022-08-23T06:11:56.413Z,21.42
2022-08-23T06:12:56.406Z,21.27
2022-08-23T06:13:56.437Z,21.24
2022-08-23T06:14:56.394Z,21.36
2022-08-23T06:15:56.390Z,21.34
2022-08-23T06:16:56.622Z,21.40
2022-08-23T06:17:56.452Z,21.38
2022-08-23T06:18:56.372Z,21.43
2022-08-23T06:19:56.369Z,21.45
2022-08-23T06:20:56.363Z,21.45
2022-08-23T06:21:56.357Z,21.49
2022-08-23T06:22:56.354Z,21.42
2022-08-23T06:23:56.347Z,21.51
2022-08-23T06:24:56.340Z,21.55
2022-08-23T06:25:56.336Z,21.56
2022-08-23T06:26:56.327Z,21.63
2022-08-23T06:27:56.467Z,21.73
2022-08-23T06:28:56.400Z,21.81
2022-08-23T06:29:56.316Z,21.86
2022-08-23T06:30:56.580Z,21.85
2022-08-23T06:31:56.302Z,21.85
2022-08-23T06:32:56.399Z,21.94
2022-08-23T06:33:56.541Z,21.89
2022-08-23T06:35:31.443Z,21.91
2022-08-23T06:35:56.282Z,21.94
2022-08-23T06:36:56.277Z,22.06
2022-08-23T06:37:56.784Z,22.02
2022-08-23T06:38:56.264Z,22.12
2022-08-23T06:39:56.272Z,22.21
2022-08-23T06:40:56.254Z,22.29
2022-08-23T06:41:56.254Z,22.31
2022-08-23T06:42:56.244Z,22.35
2022-08-23T06:43:56.242Z,22.42
2022-08-23T06:44:56.236Z,22.48
2022-08-23T06:45:58.353Z,22.48
2022-08-23T06:46:56.377Z,22.49
2022-08-23T06:47:56.283Z,22.48
2022-08-23T06:48:56.217Z,22.45
2022-08-23T06:49:57.688Z,22.61
2022-08-23T06:50:56.210Z,22.49
2022-08-23T06:51:56.204Z,22.59
2022-08-23T06:52:56.197Z,22.63
2022-08-23T06:53:56.195Z,22.66
2022-08-23T06:54:57.773Z,22.64
2022-08-23T06:55:56.185Z,22.64
2022-08-23T06:56:56.179Z,22.70
2022-08-23T06:57:56.176Z,22.79
2022-08-23T06:58:56.271Z,22.81
2022-08-23T06:59:56.167Z,22.85
2022-08-23T07:00:57.618Z,23.00
2022-08-23T07:01:56.309Z,23.00
2022-08-23T07:02:56.287Z,23.04
2022-08-23T07:03:56.149Z,23.12
2022-08-23T07:04:56.143Z,23.11
2022-08-23T07:05:56.141Z,23.18
2022-08-23T07:06:56.148Z,23.21
2022-08-23T07:07:56.133Z,23.31
2022-08-23T07:08:56.158Z,23.34
2022-08-23T07:09:56.124Z,23.29
2022-08-23T07:10:56.118Z,23.34
2022-08-23T07:11:56.222Z,23.39
2022-08-23T07:12:56.108Z,23.52
2022-08-23T07:13:56.106Z,23.49
2022-08-23T07:14:56.101Z,23.62
2022-08-23T07:15:56.139Z,23.63
2022-08-23T07:16:56.093Z,23.74
2022-08-23T07:17:56.090Z,23.72
2022-08-23T07:18:56.085Z,23.77
2022-08-23T07:19:56.083Z,23.77
2022-08-23T07:20:56.078Z,23.77
2022-08-23T07:21:56.075Z,23.89
2022-08-23T07:22:56.165Z,23.87
2022-08-23T07:23:56.071Z,24.06
2022-08-23T07:24:56.062Z,24.02
2022-08-23T07:25:56.061Z,24.08
2022-08-23T07:26:56.054Z,24.16
2022-08-23T07:27:56.159Z,24.12
2022-08-23T07:28:56.047Z,24.16
2022-08-23T07:29:56.046Z,24.15
2022-08-23T07:30:56.048Z,24.31
2022-08-23T07:31:56.101Z,24.33
2022-08-23T07:32:56.088Z,24.29
2022-08-23T07:33:56.031Z,24.37
2022-08-23T07:34:56.024Z,24.44
2022-08-23T07:35:56.025Z,24.44
2022-08-23T07:36:56.021Z,24.44
2022-08-23T07:37:56.038Z,24.60
2022-08-23T07:38:56.112Z,24.59
2022-08-23T07:39:57.422Z,24.66
2022-08-23T07:40:56.014Z,24.68
2022-08-23T07:41:56.004Z,24.71
2022-08-23T07:42:56.045Z,24.82
2022-08-23T07:43:55.999Z,24.83
2022-08-23T07:44:56.043Z,24.89
2022-08-23T07:45:55.992Z,24.90
2022-08-23T07:46:56.101Z,25.04
2022-08-23T07:47:55.986Z,25.07
2022-08-23T07:48:55.981Z,25.07
2022-08-23T07:49:55.981Z,25.08
2022-08-23T07:50:58.187Z,25.09
2022-08-23T07:51:55.973Z,25.20
2022-08-23T07:52:55.969Z,25.23
2022-08-23T07:53:55.967Z,25.27
2022-08-23T07:54:55.963Z,25.24
2022-08-23T07:55:55.962Z,25.20
2022-08-23T07:56:55.956Z,25.39
2022-08-23T07:57:56.027Z,25.36
2022-08-23T07:58:55.950Z,25.49
2022-08-23T07:59:55.956Z,25.54
2022-08-23T08:00:55.946Z,25.64
2022-08-23T08:01:55.995Z,25.66
2022-08-23T08:02:56.065Z,25.71
2022-08-23T08:03:55.949Z,25.64
2022-08-23T08:04:55.935Z,25.60
2022-08-23T08:05:55.935Z,25.67
2022-08-23T08:07:17.715Z,25.66
2022-08-23T08:07:55.964Z,25.67
2022-08-23T08:08:55.926Z,25.66
2022-08-23T08:09:55.925Z,25.69
2022-08-23T08:10:55.920Z,25.69
2022-08-23T08:11:55.920Z,25.66
2022-08-23T08:12:55.914Z,25.76
2022-08-23T08:13:55.915Z,25.81
2022-08-23T08:14:55.912Z,25.85
2022-08-23T08:15:55.951Z,25.85
2022-08-23T08:16:55.907Z,25.96
2022-08-23T08:17:55.935Z,25.98
2022-08-23T08:18:55.902Z,26.08
2022-08-23T08:19:55.901Z,26.16
2022-08-23T08:20:55.898Z,26.20
2022-08-23T08:21:55.901Z,26.19
2022-08-23T08:22:58.657Z,26.20
2022-08-23T08:23:55.897Z,26.28
2022-08-23T08:24:55.893Z,26.28
2022-08-23T08:25:55.889Z,26.28
2022-08-23T08:26:55.885Z,26.35
2022-08-23T08:27:55.942Z,26.29
2022-08-23T08:28:55.883Z,26.21
2022-08-23T08:29:55.882Z,26.23
2022-08-23T08:30:55.952Z,26.19
2022-08-23T08:31:55.876Z,26.19
2022-08-23T08:32:55.873Z,26.24
2022-08-23T08:33:55.874Z,26.32
2022-08-23T08:34:55.870Z,26.17
2022-08-23T08:35:59.342Z,26.23
2022-08-23T08:36:57.304Z,26.34
2022-08-23T08:38:58.786Z,26.41
2022-08-23T08:39:55.948Z,26.36
2022-08-23T08:40:55.876Z,26.44
2022-08-23T08:41:58.786Z,26.54
2022-08-23T08:42:55.874Z,26.57
2022-08-23T08:43:55.853Z,26.65
2022-08-23T08:44:55.853Z,26.68
2022-08-23T08:45:58.938Z,26.61
2022-08-23T08:46:55.849Z,26.54
2022-08-23T08:47:55.886Z,26.54
2022-08-23T08:48:55.848Z,26.49
2022-08-23T08:49:55.843Z,26.39
2022-08-23T08:50:55.841Z,26.38
2022-08-23T08:51:55.839Z,26.32
2022-08-23T08:52:55.840Z,26.24
2022-08-23T08:53:55.835Z,26.35
2022-08-23T08:54:55.883Z,26.53
2022-08-23T08:55:55.831Z,26.51
2022-08-23T08:56:55.832Z,26.66
2022-08-23T08:57:55.890Z,26.72
2022-08-23T08:58:55.829Z,26.75
2022-08-23T08:59:55.828Z,26.73
2022-08-23T09:00:55.824Z,26.73
2022-08-23T09:01:55.852Z,26.71
2022-08-23T09:02:55.905Z,26.84
2022-08-23T09:03:55.819Z,26.90
2022-08-23T09:04:55.819Z,26.96
2022-08-23T09:05:56.443Z,27.01
2022-08-23T09:06:55.815Z,26.96
2022-08-23T09:07:55.886Z,27.02
2022-08-23T09:08:55.812Z,27.06
2022-08-23T09:09:55.808Z,27.06
2022-08-23T09:10:58.368Z,27.11
2022-08-23T09:11:55.806Z,27.09
2022-08-23T09:12:55.809Z,27.06
2022-08-23T09:13:55.805Z,27.12
2022-08-23T09:14:55.802Z,27.16
2022-08-23T09:15:55.880Z,27.16
2022-08-23T09:16:55.802Z,27.18
2022-08-23T09:17:56.070Z,27.06
2022-08-23T09:18:55.797Z,27.13
2022-08-23T09:19:55.793Z,27.16
2022-08-23T09:20:55.796Z,27.13
2022-08-23T09:21:55.796Z,27.12
2022-08-23T09:22:55.793Z,27.03
2022-08-23T09:24:00.347Z,27.11
2022-08-23T09:24:55.789Z,27.16
2022-08-23T09:25:59.888Z,27.08
2022-08-23T09:26:55.787Z,27.18
2022-08-23T09:27:55.838Z,27.08
2022-08-23T09:28:55.785Z,27.27
2022-08-23T09:29:55.782Z,27.39
2022-08-23T09:30:55.848Z,27.40
2022-08-23T09:31:55.779Z,27.46
2022-08-23T09:32:55.880Z,27.49
2022-08-23T09:33:55.776Z,27.61
2022-08-23T09:34:55.774Z,27.62
2022-08-23T09:35:55.775Z,27.53
2022-08-23T09:36:55.772Z,27.66
2022-08-23T09:37:55.829Z,27.74
2022-08-23T09:38:55.771Z,27.71
2022-08-23T09:39:55.819Z,27.72
2022-08-23T09:40:55.767Z,27.65
2022-08-23T09:41:55.767Z,27.78
2022-08-23T09:42:55.764Z,27.81
2022-08-23T09:43:55.765Z,27.78
2022-08-23T09:44:55.763Z,27.91
2022-08-23T09:45:55.826Z,27.95
2022-08-23T09:46:55.860Z,27.98
2022-08-23T09:47:55.819Z,28.01
2022-08-23T09:48:55.758Z,27.96
2022-08-23T09:49:55.760Z,27.86
2022-08-23T09:50:55.757Z,27.71
2022-08-23T09:51:55.757Z,27.80
2022-08-23T09:52:55.808Z,27.81
2022-08-23T09:53:55.755Z,27.76
2022-08-23T09:54:56.016Z,27.78
2022-08-23T09:55:55.754Z,27.93
2022-08-23T09:56:55.749Z,27.96
2022-08-23T09:57:55.751Z,27.99
2022-08-23T09:58:55.749Z,27.95
2022-08-23T09:59:55.754Z,27.96
2022-08-23T10:00:55.949Z,28.01
2022-08-23T10:01:55.815Z,27.95
2022-08-23T10:02:55.786Z,27.90
2022-08-23T10:03:55.746Z,28.03
2022-08-23T10:04:55.816Z,27.99
2022-08-23T10:05:55.749Z,27.91
2022-08-23T10:06:55.741Z,27.98
2022-08-23T10:07:55.743Z,27.91
2022-08-23T10:08:55.740Z,27.86
2022-08-23T10:09:55.742Z,27.78
2022-08-23T10:10:55.737Z,27.74
2022-08-23T10:11:55.739Z,27.65
2022-08-23T10:12:56.009Z,27.62
2022-08-23T10:13:55.737Z,27.52
2022-08-23T10:14:55.734Z,27.38
2022-08-23T10:15:55.802Z,27.28
2022-08-23T10:16:55.733Z,27.25
2022-08-23T10:17:55.763Z,27.27
2022-08-23T10:18:55.730Z,27.28
2022-08-23T10:19:55.731Z,27.27
2022-08-23T10:20:55.729Z,27.20
2022-08-23T10:21:55.729Z,27.09
2022-08-23T10:22:55.726Z,27.21
2022-08-23T10:23:55.727Z,27.09
2022-08-23T10:24:55.725Z,27.13
2022-08-23T10:25:55.726Z,27.05
2022-08-23T10:26:55.720Z,27.01
2022-08-23T10:27:55.786Z,27.09
2022-08-23T10:28:55.728Z,27.05
2022-08-23T10:29:55.720Z,27.05
2022-08-23T10:30:55.753Z,27.08
2022-08-23T10:31:59.172Z,27.05
2022-08-23T10:32:55.715Z,27.12
2022-08-23T10:33:55.713Z,27.08
2022-08-23T10:34:55.712Z,27.06
2022-08-23T10:35:55.713Z,27.09
2022-08-23T10:36:55.707Z,27.09
2022-08-23T10:37:55.789Z,27.23
2022-08-23T10:38:55.705Z,27.18
2022-08-23T10:39:58.220Z,27.27
2022-08-23T10:40:55.704Z,27.33
2022-08-23T10:41:55.701Z,27.50
2022-08-23T10:42:55.698Z,27.59
2022-08-23T10:43:55.701Z,27.68
2022-08-23T10:44:55.698Z,27.59
2022-08-23T10:46:00.219Z,27.55
2022-08-23T10:46:55.692Z,27.55
2022-08-23T10:47:55.750Z,27.53
2022-08-23T10:48:55.691Z,27.53
2022-08-23T10:49:55.695Z,27.62
2022-08-23T10:50:56.120Z,27.74
2022-08-23T10:51:55.688Z,27.86
2022-08-23T10:52:55.786Z,27.88
2022-08-23T10:53:55.686Z,27.95
2022-08-23T10:54:55.683Z,27.95
2022-08-23T10:55:55.685Z,27.99
2022-08-23T10:56:55.682Z,28.09
2022-08-23T10:57:55.737Z,27.98
2022-08-23T10:58:55.681Z,28.05
2022-08-23T10:59:55.679Z,28.06
2022-08-23T11:00:55.676Z,28.03
2022-08-23T11:01:55.737Z,27.93
2022-08-23T11:02:55.753Z,27.90
2022-08-23T11:03:55.681Z,27.99
2022-08-23T11:04:55.672Z,27.99
2022-08-23T11:05:55.673Z,27.95
2022-08-23T11:06:55.670Z,27.99
2022-08-23T11:07:55.712Z,27.86
2022-08-23T11:08:55.668Z,27.90
2022-08-23T11:09:55.668Z,27.80
2022-08-23T11:10:57.030Z,27.84
2022-08-23T11:11:55.665Z,27.84
2022-08-23T11:12:55.662Z,27.93
2022-08-23T11:13:55.664Z,27.95
2022-08-23T11:14:55.662Z,28.01
2022-08-23T11:15:55.687Z,27.90
2022-08-23T11:16:55.660Z,27.98
2022-08-23T11:17:55.685Z,28.01
2022-08-23T11:18:55.657Z,28.09
2022-08-23T11:19:55.672Z,28.11
2022-08-23T11:20:55.656Z,28.17
2022-08-23T11:21:55.656Z,28.13
2022-08-23T11:22:55.653Z,28.09
2022-08-23T11:23:55.656Z,28.08
2022-08-23T11:24:55.650Z,28.14
2022-08-23T11:25:55.652Z,28.20
2022-08-23T11:26:55.647Z,28.15
2022-08-23T11:27:55.650Z,28.17
2022-08-23T11:28:55.648Z,28.28
2022-08-23T11:29:55.648Z,28.32
2022-08-23T11:30:55.696Z,28.27
2022-08-23T11:31:55.647Z,28.32
2022-08-23T11:32:55.643Z,28.43
2022-08-23T11:33:55.644Z,28.48
2022-08-23T11:34:55.641Z,28.42
2022-08-23T11:35:55.641Z,28.32
2022-08-23T11:36:55.638Z,28.32
2022-08-23T11:37:55.641Z,28.40
2022-08-23T11:38:55.644Z,28.38
2022-08-23T11:39:55.751Z,28.50
2022-08-23T11:40:55.638Z,28.54
2022-08-23T11:41:55.637Z,28.57
2022-08-23T11:42:55.633Z,28.58
2022-08-23T11:43:55.635Z,28.62
2022-08-23T11:44:55.634Z,28.72
2022-08-23T11:45:55.655Z,28.61
2022-08-23T11:46:55.631Z,28.69
2022-08-23T11:47:55.786Z,28.72
2022-08-23T11:48:55.630Z,28.60
2022-08-23T11:49:55.632Z,28.54
2022-08-23T11:50:58.282Z,28.51
2022-08-23T11:51:55.629Z,28.46
2022-08-23T11:52:55.626Z,28.50
2022-08-23T11:53:55.627Z,28.55
2022-08-23T11:54:55.624Z,28.50
2022-08-23T11:55:55.626Z,28.50
2022-08-23T11:56:55.625Z,28.57
2022-08-23T11:57:55.725Z,28.67
2022-08-23T11:58:55.622Z,28.70
2022-08-23T11:59:55.624Z,28.80
2022-08-23T12:00:55.624Z,28.85
2022-08-23T12:01:55.624Z,28.82
2022-08-23T12:02:55.721Z,28.74
2022-08-23T12:03:55.813Z,28.69
2022-08-23T12:04:55.625Z,28.57
2022-08-23T12:05:55.622Z,28.52
2022-08-23T12:06:55.618Z,28.65
2022-08-23T12:07:55.677Z,28.73
2022-08-23T12:08:55.620Z,28.65
2022-08-23T12:09:55.619Z,28.73
2022-08-23T12:10:55.666Z,28.73
2022-08-23T12:11:55.626Z,28.73
2022-08-23T12:12:55.616Z,28.67
2022-08-23T12:13:55.616Z,28.69
2022-08-23T12:14:55.614Z,28.72
2022-08-23T12:15:55.683Z,28.80
2022-08-23T12:16:56.802Z,28.88
2022-08-23T12:17:55.618Z,28.83
2022-08-23T12:18:55.610Z,28.74
2022-08-23T12:19:55.613Z,28.73
2022-08-23T12:20:55.611Z,28.76
2022-08-23T12:21:55.613Z,28.79
2022-08-23T12:22:55.611Z,28.79
2022-08-23T12:23:55.612Z,28.70
2022-08-23T12:24:55.609Z,28.76
2022-08-23T12:25:55.612Z,28.69
2022-08-23T12:26:55.608Z,28.77
2022-08-23T12:27:55.624Z,28.73
2022-08-23T12:28:55.606Z,28.74
2022-08-23T12:29:55.610Z,29.00
2022-08-23T12:30:55.657Z,28.95
2022-08-23T12:31:55.621Z,28.80
2022-08-23T12:32:55.606Z,28.85
2022-08-23T12:33:55.608Z,28.94
2022-08-23T12:34:55.603Z,28.82
2022-08-23T12:35:55.606Z,29.02
2022-08-23T12:36:55.606Z,29.00
2022-08-23T12:37:55.654Z,29.08
2022-08-23T12:38:55.601Z,29.10
2022-08-23T12:39:55.650Z,29.11
2022-08-23T12:40:56.854Z,29.05
2022-08-23T12:41:55.604Z,29.07
2022-08-23T12:42:55.715Z,29.02
2022-08-23T12:43:55.603Z,28.97
2022-08-23T12:44:55.601Z,29.02
2022-08-23T12:45:55.672Z,29.05
2022-08-23T12:46:55.606Z,28.94
2022-08-23T12:47:55.604Z,28.88
2022-08-23T12:48:55.599Z,28.77
2022-08-23T12:49:55.602Z,28.72
2022-08-23T12:50:55.597Z,28.80
2022-08-23T12:51:55.600Z,28.85
2022-08-23T12:52:55.627Z,28.79
2022-08-23T12:53:55.600Z,28.95
2022-08-23T12:54:55.596Z,29.02